sensor_id;sensor_type;location;lat;lon;timestamp;temperature;humidity
52127;DHT22;38120;53.176;6.614;2023-07-16T00:02:02;16.80;99.90
52127;DHT22;38120;53.176;6.614;2023-07-16T00:04:28;16.80;99.90
52127;DHT22;38120;53.176;6.614;2023-07-16T00:06:54;16.80;99.90
52127;DHT22;38120;53.176;6.614;2023-07-16T00:09:19;16.80;99.90
52127;DHT22;38120;53.176;6.614;2023-07-16T00:11:48;16.80;99.90
52127;DHT22;38120;53.176;6.614;2023-07-16T00:14:13;16.80;99.90
52127;DHT22;38120;53.176;6.614;2023-07-16T00:16:39;16.80;99.90
52127;DHT22;38120;53.176;6.614;2023-07-16T00:19:05;16.80;99.90
52127;DHT22;38120;53.176;6.614;2023-07-16T00:21:30;16.80;99.90
52127;DHT22;38120;53.176;6.614;2023-07-16T00:23:56;16.80;99.90
52127;DHT22;38120;53.176;6.614;2023-07-16T00:26:22;16.80;99.90
52127;DHT22;38120;53.176;6.614;2023-07-16T00:28:47;16.80;99.90
52127;DHT22;38120;53.176;6.614;2023-07-16T00:31:13;16.70;99.90
52127;DHT22;38120;53.176;6.614;2023-07-16T00:33:39;16.70;99.90
52127;DHT22;38120;53.176;6.614;2023-07-16T00:36:04;16.70;99.90
52127;DHT22;38120;53.176;6.614;2023-07-16T00:38:30;16.60;99.90
52127;DHT22;38120;53.176;6.614;2023-07-16T00:40:56;16.60;99.90
52127;DHT22;38120;53.176;6.614;2023-07-16T00:43:22;16.60;99.90
52127;DHT22;38120;53.176;6.614;2023-07-16T00:45:48;16.60;99.90
52127;DHT22;38120;53.176;6.614;2023-07-16T00:48:14;16.60;99.90
52127;DHT22;38120;53.176;6.614;2023-07-16T00:50:41;16.70;99.90
52127;DHT22;38120;53.176;6.614;2023-07-16T00:53:10;16.60;99.90
52127;DHT22;38120;53.176;6.614;2023-07-16T00:55:36;16.70;99.90
52127;DHT22;38120;53.176;6.614;2023-07-16T00:58:04;16.60;99.90
52127;DHT22;38120;53.176;6.614;2023-07-16T01:00:38;16.60;99.90
52127;DHT22;38120;53.176;6.614;2023-07-16T01:03:07;16.60;99.90
52127;DHT22;38120;53.176;6.614;2023-07-16T01:11:29;16.70;99.90
52127;DHT22;38120;53.176;6.614;2023-07-16T01:13:55;16.70;99.90
52127;DHT22;38120;53.176;6.614;2023-07-16T01:16:24;16.60;99.90
52127;DHT22;38120;53.176;6.614;2023-07-16T01:18:50;16.70;99.90
52127;DHT22;38120;53.176;6.614;2023-07-16T01:21:18;16.70;99.90
52127;DHT22;38120;53.176;6.614;2023-07-16T01:29:49;16.70;99.90
52127;DHT22;38120;53.176;6.614;2023-07-16T01:32:17;16.70;99.90
52127;DHT22;38120;53.176;6.614;2023-07-16T01:34:44;16.60;99.90
52127;DHT22;38120;53.176;6.614;2023-07-16T01:37:10;16.60;99.90
52127;DHT22;38120;53.176;6.614;2023-07-16T01:39:36;16.60;99.90
52127;DHT22;38120;53.176;6.614;2023-07-16T01:42:02;16.60;99.90
52127;DHT22;38120;53.176;6.614;2023-07-16T01:44:28;16.60;99.90
52127;DHT22;38120;53.176;6.614;2023-07-16T01:47:10;16.50;99.90
52127;DHT22;38120;53.176;6.614;2023-07-16T01:49:39;16.50;99.90
52127;DHT22;38120;53.176;6.614;2023-07-16T01:52:07;17.70;99.90
52127;DHT22;38120;53.176;6.614;2023-07-16T01:54:35;16.60;99.90
52127;DHT22;38120;53.176;6.614;2023-07-16T01:57:00;16.60;99.90
52127;DHT22;38120;53.176;6.614;2023-07-16T01:59:26;16.50;99.90
52127;DHT22;38120;53.176;6.614;2023-07-16T02:01:52;16.50;99.90
52127;DHT22;38120;53.176;6.614;2023-07-16T02:04:18;16.50;99.90
52127;DHT22;38120;53.176;6.614;2023-07-16T02:06:43;16.50;99.90
52127;DHT22;38120;53.176;6.614;2023-07-16T02:09:10;16.50;99.90
52127;DHT22;38120;53.176;6.614;2023-07-16T02:11:36;16.50;99.90
52127;DHT22;38120;53.176;6.614;2023-07-16T02:14:01;16.50;99.90
52127;DHT22;38120;53.176;6.614;2023-07-16T02:16:27;16.40;99.90
52127;DHT22;38120;53.176;6.614;2023-07-16T02:18:53;16.40;99.90
52127;DHT22;38120;53.176;6.614;2023-07-16T02:21:18;16.40;99.90
52127;DHT22;38120;53.176;6.614;2023-07-16T02:23:44;16.40;99.90
52127;DHT22;38120;53.176;6.614;2023-07-16T02:26:10;16.40;99.90
52127;DHT22;38120;53.176;6.614;2023-07-16T02:28:38;16.40;99.90
52127;DHT22;38120;53.176;6.614;2023-07-16T02:31:07;16.40;99.90
52127;DHT22;38120;53.176;6.614;2023-07-16T02:33:32;16.40;99.90
52127;DHT22;38120;53.176;6.614;2023-07-16T02:36:13;16.40;99.90
52127;DHT22;38120;53.176;6.614;2023-07-16T02:38:41;16.40;99.90
52127;DHT22;38120;53.176;6.614;2023-07-16T02:41:07;16.50;99.90
52127;DHT22;38120;53.176;6.614;2023-07-16T02:43:33;16.50;99.90
52127;DHT22;38120;53.176;6.614;2023-07-16T02:45:59;16.50;99.90
52127;DHT22;38120;53.176;6.614;2023-07-16T02:48:24;16.60;99.90
52127;DHT22;38120;53.176;6.614;2023-07-16T02:50:50;16.50;99.90
52127;DHT22;38120;53.176;6.614;2023-07-16T02:53:16;16.50;99.90
52127;DHT22;38120;53.176;6.614;2023-07-16T02:55:41;16.60;99.90
52127;DHT22;38120;53.176;6.614;2023-07-16T02:58:07;16.60;99.90
52127;DHT22;38120;53.176;6.614;2023-07-16T03:00:34;16.60;99.90
52127;DHT22;38120;53.176;6.614;2023-07-16T03:03:00;16.60;99.90
52127;DHT22;38120;53.176;6.614;2023-07-16T03:05:28;16.60;99.90
52127;DHT22;38120;53.176;6.614;2023-07-16T03:07:54;16.60;99.90
52127;DHT22;38120;53.176;6.614;2023-07-16T03:10:23;16.50;99.90
52127;DHT22;38120;53.176;6.614;2023-07-16T03:12:52;16.50;99.90
52127;DHT22;38120;53.176;6.614;2023-07-16T03:15:18;16.60;99.90
52127;DHT22;38120;53.176;6.614;2023-07-16T03:17:43;16.60;99.90
52127;DHT22;38120;53.176;6.614;2023-07-16T03:20:09;16.50;99.90
52127;DHT22;38120;53.176;6.614;2023-07-16T03:22:35;16.90;99.90
52127;DHT22;38120;53.176;6.614;2023-07-16T03:25:01;16.50;99.90
52127;DHT22;38120;53.176;6.614;2023-07-16T03:27:28;16.60;99.90
52127;DHT22;38120;53.176;6.614;2023-07-16T03:29:54;16.60;99.90
52127;DHT22;38120;53.176;6.614;2023-07-16T03:32:20;16.50;99.90
52127;DHT22;38120;53.176;6.614;2023-07-16T03:34:45;16.50;99.90
52127;DHT22;38120;53.176;6.614;2023-07-16T03:37:14;16.50;99.90
52127;DHT22;38120;53.176;6.614;2023-07-16T03:39:39;16.50;99.90
52127;DHT22;38120;53.176;6.614;2023-07-16T03:42:05;16.50;99.90
52127;DHT22;38120;53.176;6.614;2023-07-16T03:44:31;16.50;99.90
52127;DHT22;38120;53.176;6.614;2023-07-16T03:46:56;16.50;99.90
52127;DHT22;38120;53.176;6.614;2023-07-16T03:49:22;16.50;99.90
52127;DHT22;38120;53.176;6.614;2023-07-16T03:51:48;16.50;99.90
52127;DHT22;38120;53.176;6.614;2023-07-16T03:54:13;16.50;99.90
52127;DHT22;38120;53.176;6.614;2023-07-16T03:56:39;16.40;99.90
52127;DHT22;38120;53.176;6.614;2023-07-16T03:59:05;16.40;99.90
52127;DHT22;38120;53.176;6.614;2023-07-16T04:01:30;16.40;99.90
52127;DHT22;38120;53.176;6.614;2023-07-16T04:03:56;16.40;99.90
52127;DHT22;38120;53.176;6.614;2023-07-16T04:06:22;16.40;99.90
52127;DHT22;38120;53.176;6.614;2023-07-16T04:08:47;16.40;99.90
52127;DHT22;38120;53.176;6.614;2023-07-16T04:11:13;16.40;99.90
52127;DHT22;38120;53.176;6.614;2023-07-16T04:13:39;16.40;99.90
52127;DHT22;38120;53.176;6.614;2023-07-16T04:16:04;16.40;99.90
52127;DHT22;38120;53.176;6.614;2023-07-16T04:18:30;16.40;99.90
52127;DHT22;38120;53.176;6.614;2023-07-16T04:20:56;16.40;99.90
52127;DHT22;38120;53.176;6.614;2023-07-16T04:23:22;16.40;99.90
52127;DHT22;38120;53.176;6.614;2023-07-16T04:25:51;16.50;99.90
52127;DHT22;38120;53.176;6.614;2023-07-16T04:28:17;16.40;99.90
52127;DHT22;38120;53.176;6.614;2023-07-16T04:30:42;16.40;99.90
52127;DHT22;38120;53.176;6.614;2023-07-16T04:33:08;16.50;99.90
52127;DHT22;38120;53.176;6.614;2023-07-16T04:35:34;16.50;99.90
52127;DHT22;38120;53.176;6.614;2023-07-16T04:38:00;16.40;99.90
52127;DHT22;38120;53.176;6.614;2023-07-16T04:40:26;16.50;99.90
52127;DHT22;38120;53.176;6.614;2023-07-16T04:42:51;16.50;99.90
52127;DHT22;38120;53.176;6.614;2023-07-16T04:45:17;16.60;99.90
52127;DHT22;38120;53.176;6.614;2023-07-16T04:47:43;16.60;99.90
52127;DHT22;38120;53.176;6.614;2023-07-16T04:50:09;16.60;99.90
52127;DHT22;38120;53.176;6.614;2023-07-16T04:52:35;16.60;99.90
52127;DHT22;38120;53.176;6.614;2023-07-16T04:55:00;16.60;99.90
52127;DHT22;38120;53.176;6.614;2023-07-16T04:57:26;16.60;99.90
52127;DHT22;38120;53.176;6.614;2023-07-16T04:59:52;16.70;99.90
52127;DHT22;38120;53.176;6.614;2023-07-16T05:02:17;16.70;99.90
52127;DHT22;38120;53.176;6.614;2023-07-16T05:04:43;16.70;99.90
52127;DHT22;38120;53.176;6.614;2023-07-16T05:07:10;16.70;99.90
52127;DHT22;38120;53.176;6.614;2023-07-16T05:09:36;16.80;99.90
52127;DHT22;38120;53.176;6.614;2023-07-16T05:12:02;16.80;99.90
52127;DHT22;38120;53.176;6.614;2023-07-16T05:14:28;16.90;99.90
52127;DHT22;38120;53.176;6.614;2023-07-16T05:16:55;16.90;99.90
52127;DHT22;38120;53.176;6.614;2023-07-16T05:19:21;17.00;99.90
52127;DHT22;38120;53.176;6.614;2023-07-16T05:21:46;17.00;99.90
52127;DHT22;38120;53.176;6.614;2023-07-16T05:24:13;17.00;99.90
52127;DHT22;38120;53.176;6.614;2023-07-16T05:26:39;17.00;99.90
52127;DHT22;38120;53.176;6.614;2023-07-16T05:29:04;17.00;99.90
52127;DHT22;38120;53.176;6.614;2023-07-16T05:31:30;17.00;99.90
52127;DHT22;38120;53.176;6.614;2023-07-16T05:33:56;17.10;99.90
52127;DHT22;38120;53.176;6.614;2023-07-16T05:36:22;17.10;99.90
52127;DHT22;38120;53.176;6.614;2023-07-16T05:38:47;17.20;99.90
52127;DHT22;38120;53.176;6.614;2023-07-16T05:41:13;17.40;99.90
52127;DHT22;38120;53.176;6.614;2023-07-16T05:43:39;17.50;99.90
52127;DHT22;38120;53.176;6.614;2023-07-16T05:46:05;17.60;99.90
52127;DHT22;38120;53.176;6.614;2023-07-16T05:48:31;17.70;99.90
52127;DHT22;38120;53.176;6.614;2023-07-16T05:50:57;17.80;99.90
52127;DHT22;38120;53.176;6.614;2023-07-16T05:53:22;17.80;99.90
52127;DHT22;38120;53.176;6.614;2023-07-16T05:55:48;18.00;99.90
52127;DHT22;38120;53.176;6.614;2023-07-16T05:58:17;18.00;99.90
52127;DHT22;38120;53.176;6.614;2023-07-16T06:00:43;18.00;99.90
52127;DHT22;38120;53.176;6.614;2023-07-16T06:03:09;18.10;99.90
52127;DHT22;38120;53.176;6.614;2023-07-16T06:05:34;18.00;99.90
52127;DHT22;38120;53.176;6.614;2023-07-16T06:08:02;18.10;99.90
52127;DHT22;38120;53.176;6.614;2023-07-16T06:10:28;18.20;99.90
52127;DHT22;38120;53.176;6.614;2023-07-16T06:12:53;18.20;99.90
52127;DHT22;38120;53.176;6.614;2023-07-16T06:15:20;18.30;99.90
52127;DHT22;38120;53.176;6.614;2023-07-16T06:17:46;18.40;99.90
52127;DHT22;38120;53.176;6.614;2023-07-16T06:20:12;18.50;99.90
52127;DHT22;38120;53.176;6.614;2023-07-16T06:22:37;18.30;99.90
52127;DHT22;38120;53.176;6.614;2023-07-16T06:25:03;18.40;99.90
52127;DHT22;38120;53.176;6.614;2023-07-16T06:27:30;18.50;99.90
52127;DHT22;38120;53.176;6.614;2023-07-16T06:29:56;18.40;99.90
52127;DHT22;38120;53.176;6.614;2023-07-16T06:32:22;18.30;99.90
52127;DHT22;38120;53.176;6.614;2023-07-16T06:34:47;18.30;99.90
52127;DHT22;38120;53.176;6.614;2023-07-16T06:37:13;18.20;99.90
52127;DHT22;38120;53.176;6.614;2023-07-16T06:39:39;18.20;99.90
52127;DHT22;38120;53.176;6.614;2023-07-16T06:42:05;18.10;99.90
52127;DHT22;38120;53.176;6.614;2023-07-16T06:44:30;18.00;99.90
52127;DHT22;38120;53.176;6.614;2023-07-16T06:46:56;18.00;99.90
52127;DHT22;38120;53.176;6.614;2023-07-16T06:49:23;18.00;99.90
52127;DHT22;38120;53.176;6.614;2023-07-16T06:51:49;18.20;99.90
52127;DHT22;38120;53.176;6.614;2023-07-16T06:54:14;18.20;99.90
52127;DHT22;38120;53.176;6.614;2023-07-16T06:56:46;18.40;99.90
52127;DHT22;38120;53.176;6.614;2023-07-16T06:59:12;18.40;99.90
52127;DHT22;38120;53.176;6.614;2023-07-16T07:01:40;18.50;99.90
52127;DHT22;38120;53.176;6.614;2023-07-16T07:04:06;18.60;99.90
52127;DHT22;38120;53.176;6.614;2023-07-16T07:06:35;18.90;99.90
52127;DHT22;38120;53.176;6.614;2023-07-16T07:09:00;19.10;99.90
52127;DHT22;38120;53.176;6.614;2023-07-16T07:11:26;19.00;99.90
52127;DHT22;38120;53.176;6.614;2023-07-16T07:14:00;18.90;99.90
52127;DHT22;38120;53.176;6.614;2023-07-16T07:16:26;18.90;99.90
52127;DHT22;38120;53.176;6.614;2023-07-16T07:19:00;18.90;99.90
52127;DHT22;38120;53.176;6.614;2023-07-16T07:21:26;18.90;99.90
52127;DHT22;38120;53.176;6.614;2023-07-16T07:23:52;19.00;99.90
52127;DHT22;38120;53.176;6.614;2023-07-16T07:26:17;18.90;99.90
52127;DHT22;38120;53.176;6.614;2023-07-16T07:28:43;18.80;99.90
52127;DHT22;38120;53.176;6.614;2023-07-16T07:31:09;18.80;99.90
52127;DHT22;38120;53.176;6.614;2023-07-16T07:33:34;18.70;99.90
52127;DHT22;38120;53.176;6.614;2023-07-16T07:36:00;18.60;99.90
52127;DHT22;38120;53.176;6.614;2023-07-16T07:38:29;18.50;99.90
52127;DHT22;38120;53.176;6.614;2023-07-16T07:40:57;18.60;99.90
52127;DHT22;38120;53.176;6.614;2023-07-16T07:43:23;18.50;99.90
52127;DHT22;38120;53.176;6.614;2023-07-16T07:45:48;18.70;99.90
52127;DHT22;38120;53.176;6.614;2023-07-16T07:48:14;19.00;99.90
52127;DHT22;38120;53.176;6.614;2023-07-16T07:50:43;19.20;99.90
52127;DHT22;38120;53.176;6.614;2023-07-16T07:53:08;19.20;99.90
52127;DHT22;38120;53.176;6.614;2023-07-16T07:55:34;19.00;99.90
52127;DHT22;38120;53.176;6.614;2023-07-16T07:58:03;18.90;99.90
52127;DHT22;38120;53.176;6.614;2023-07-16T08:00:28;18.80;99.90
52127;DHT22;38120;53.176;6.614;2023-07-16T08:02:54;18.60;99.90
52127;DHT22;38120;53.176;6.614;2023-07-16T08:05:20;18.60;99.90
52127;DHT22;38120;53.176;6.614;2023-07-16T08:07:48;18.60;99.90
52127;DHT22;38120;53.176;6.614;2023-07-16T08:10:14;18.70;99.90
52127;DHT22;38120;53.176;6.614;2023-07-16T08:12:40;18.80;99.90
52127;DHT22;38120;53.176;6.614;2023-07-16T08:15:06;18.90;99.90
52127;DHT22;38120;53.176;6.614;2023-07-16T08:17:33;18.80;99.90
52127;DHT22;38120;53.176;6.614;2023-07-16T08:19:59;18.80;99.90
52127;DHT22;38120;53.176;6.614;2023-07-16T08:22:25;18.70;99.90
52127;DHT22;38120;53.176;6.614;2023-07-16T08:24:53;18.70;99.90
52127;DHT22;38120;53.176;6.614;2023-07-16T08:27:19;18.50;99.90
52127;DHT22;38120;53.176;6.614;2023-07-16T08:29:45;18.40;99.90
52127;DHT22;38120;53.176;6.614;2023-07-16T08:32:10;18.20;99.90
52127;DHT22;38120;53.176;6.614;2023-07-16T08:34:36;18.20;99.90
52127;DHT22;38120;53.176;6.614;2023-07-16T08:37:15;18.20;99.90
52127;DHT22;38120;53.176;6.614;2023-07-16T08:39:51;18.20;99.90
52127;DHT22;38120;53.176;6.614;2023-07-16T08:42:17;18.20;99.90
52127;DHT22;38120;53.176;6.614;2023-07-16T08:44:44;18.20;99.90
52127;DHT22;38120;53.176;6.614;2023-07-16T08:47:10;18.40;99.90
52127;DHT22;38120;53.176;6.614;2023-07-16T08:49:36;19.00;99.90
52127;DHT22;38120;53.176;6.614;2023-07-16T08:52:05;19.50;99.90
52127;DHT22;38120;53.176;6.614;2023-07-16T08:54:31;19.60;99.90
52127;DHT22;38120;53.176;6.614;2023-07-16T08:56:58;19.80;99.90
52127;DHT22;38120;53.176;6.614;2023-07-16T08:59:26;20.10;99.90
52127;DHT22;38120;53.176;6.614;2023-07-16T09:01:51;20.00;99.90
52127;DHT22;38120;53.176;6.614;2023-07-16T09:04:17;20.00;99.90
52127;DHT22;38120;53.176;6.614;2023-07-16T09:06:43;19.90;99.90
52127;DHT22;38120;53.176;6.614;2023-07-16T09:09:24;20.00;99.90
52127;DHT22;38120;53.176;6.614;2023-07-16T09:11:51;20.10;99.90
52127;DHT22;38120;53.176;6.614;2023-07-16T09:14:18;20.00;99.90
52127;DHT22;38120;53.176;6.614;2023-07-16T09:16:48;19.90;99.90
52127;DHT22;38120;53.176;6.614;2023-07-16T09:19:14;20.10;99.90
52127;DHT22;38120;53.176;6.614;2023-07-16T09:21:42;20.40;99.90
52127;DHT22;38120;53.176;6.614;2023-07-16T09:24:08;20.30;99.90
52127;DHT22;38120;53.176;6.614;2023-07-16T09:26:38;20.20;99.90
52127;DHT22;38120;53.176;6.614;2023-07-16T09:29:07;20.10;99.90
52127;DHT22;38120;53.176;6.614;2023-07-16T09:31:35;19.90;99.90
52127;DHT22;38120;53.176;6.614;2023-07-16T09:34:01;19.60;99.90
52127;DHT22;38120;53.176;6.614;2023-07-16T09:36:27;19.50;99.90
52127;DHT22;38120;53.176;6.614;2023-07-16T09:38:54;19.40;99.90
52127;DHT22;38120;53.176;6.614;2023-07-16T09:41:23;19.40;99.90
52127;DHT22;38120;53.176;6.614;2023-07-16T09:43:50;19.40;99.90
52127;DHT22;38120;53.176;6.614;2023-07-16T09:46:15;19.30;99.90
52127;DHT22;38120;53.176;6.614;2023-07-16T09:48:41;19.40;99.90
52127;DHT22;38120;53.176;6.614;2023-07-16T09:51:08;19.40;99.90
52127;DHT22;38120;53.176;6.614;2023-07-16T09:53:41;19.50;99.90
52127;DHT22;38120;53.176;6.614;2023-07-16T09:56:10;19.60;99.90
52127;DHT22;38120;53.176;6.614;2023-07-16T09:58:38;19.50;99.90
52127;DHT22;38120;53.176;6.614;2023-07-16T10:01:03;19.50;99.90
52127;DHT22;38120;53.176;6.614;2023-07-16T10:03:29;19.70;99.90
52127;DHT22;38120;53.176;6.614;2023-07-16T10:06:06;20.10;99.90
52127;DHT22;38120;53.176;6.614;2023-07-16T10:08:34;20.30;99.90
52127;DHT22;38120;53.176;6.614;2023-07-16T10:11:00;20.10;99.90
52127;DHT22;38120;53.176;6.614;2023-07-16T10:13:27;20.20;99.90
52127;DHT22;38120;53.176;6.614;2023-07-16T10:15:58;20.10;99.90
52127;DHT22;38120;53.176;6.614;2023-07-16T10:20:51;20.50;99.90
52127;DHT22;38120;53.176;6.614;2023-07-16T10:23:18;20.00;99.90
52127;DHT22;38120;53.176;6.614;2023-07-16T10:26:01;20.20;99.90
52127;DHT22;38120;53.176;6.614;2023-07-16T10:28:31;20.40;99.90
52127;DHT22;38120;53.176;6.614;2023-07-16T10:30:57;20.70;99.90
52127;DHT22;38120;53.176;6.614;2023-07-16T10:33:36;21.30;99.90
52127;DHT22;38120;53.176;6.614;2023-07-16T10:36:04;21.40;99.90
52127;DHT22;38120;53.176;6.614;2023-07-16T10:38:29;21.20;99.90
52127;DHT22;38120;53.176;6.614;2023-07-16T10:40:55;20.90;99.90
52127;DHT22;38120;53.176;6.614;2023-07-16T10:43:21;20.60;99.90
52127;DHT22;38120;53.176;6.614;2023-07-16T10:45:50;20.30;99.90
52127;DHT22;38120;53.176;6.614;2023-07-16T10:48:16;20.10;99.90
52127;DHT22;38120;53.176;6.614;2023-07-16T10:50:42;20.00;99.90
52127;DHT22;38120;53.176;6.614;2023-07-16T10:53:08;20.00;99.90
52127;DHT22;38120;53.176;6.614;2023-07-16T10:55:33;20.30;99.90
52127;DHT22;38120;53.176;6.614;2023-07-16T10:58:04;20.60;99.90
52127;DHT22;38120;53.176;6.614;2023-07-16T11:00:38;20.60;99.90
52127;DHT22;38120;53.176;6.614;2023-07-16T11:03:04;20.50;99.90
52127;DHT22;38120;53.176;6.614;2023-07-16T11:05:30;20.70;99.90
52127;DHT22;38120;53.176;6.614;2023-07-16T11:07:56;20.70;99.90
52127;DHT22;38120;53.176;6.614;2023-07-16T11:10:23;20.70;99.90
52127;DHT22;38120;53.176;6.614;2023-07-16T11:12:53;20.70;99.90
52127;DHT22;38120;53.176;6.614;2023-07-16T11:15:30;20.90;99.90
52127;DHT22;38120;53.176;6.614;2023-07-16T11:17:57;20.90;99.90
52127;DHT22;38120;53.176;6.614;2023-07-16T11:20:23;20.80;99.90
52127;DHT22;38120;53.176;6.614;2023-07-16T11:22:49;20.90;99.90
52127;DHT22;38120;53.176;6.614;2023-07-16T11:25:15;20.90;99.90
52127;DHT22;38120;53.176;6.614;2023-07-16T11:27:41;20.60;99.90
52127;DHT22;38120;53.176;6.614;2023-07-16T11:30:13;20.40;99.90
52127;DHT22;38120;53.176;6.614;2023-07-16T11:32:43;20.20;99.90
52127;DHT22;38120;53.176;6.614;2023-07-16T11:35:16;20.20;99.90
52127;DHT22;38120;53.176;6.614;2023-07-16T11:37:42;20.00;99.90
52127;DHT22;38120;53.176;6.614;2023-07-16T11:40:10;20.10;99.90
52127;DHT22;38120;53.176;6.614;2023-07-16T11:42:40;20.20;99.90
52127;DHT22;38120;53.176;6.614;2023-07-16T11:45:25;20.60;99.90
52127;DHT22;38120;53.176;6.614;2023-07-16T11:47:52;20.40;99.90
52127;DHT22;38120;53.176;6.614;2023-07-16T11:50:17;20.20;99.90
52127;DHT22;38120;53.176;6.614;2023-07-16T11:52:55;20.20;99.90
52127;DHT22;38120;53.176;6.614;2023-07-16T11:55:21;20.20;99.90
52127;DHT22;38120;53.176;6.614;2023-07-16T11:57:47;20.20;99.90
52127;DHT22;38120;53.176;6.614;2023-07-16T12:00:13;20.10;99.90
52127;DHT22;38120;53.176;6.614;2023-07-16T12:02:39;19.90;99.90
52127;DHT22;38120;53.176;6.614;2023-07-16T12:05:05;19.90;99.90
52127;DHT22;38120;53.176;6.614;2023-07-16T12:07:37;20.00;99.90
52127;DHT22;38120;53.176;6.614;2023-07-16T12:10:06;20.00;99.90
52127;DHT22;38120;53.176;6.614;2023-07-16T12:12:32;20.20;99.90
52127;DHT22;38120;53.176;6.614;2023-07-16T12:15:00;20.30;99.90
52127;DHT22;38120;53.176;6.614;2023-07-16T12:17:25;20.40;99.90
52127;DHT22;38120;53.176;6.614;2023-07-16T12:19:51;20.30;99.90
52127;DHT22;38120;53.176;6.614;2023-07-16T12:22:17;20.30;99.90
52127;DHT22;38120;53.176;6.614;2023-07-16T12:24:44;21.30;99.90
52127;DHT22;38120;53.176;6.614;2023-07-16T12:27:10;20.00;99.90
52127;DHT22;38120;53.176;6.614;2023-07-16T12:29:35;19.90;99.90
52127;DHT22;38120;53.176;6.614;2023-07-16T12:32:01;20.00;99.90
52127;DHT22;38120;53.176;6.614;2023-07-16T12:34:27;20.40;99.90
52127;DHT22;38120;53.176;6.614;2023-07-16T12:36:52;20.70;99.90
52127;DHT22;38120;53.176;6.614;2023-07-16T12:39:20;20.80;99.90
52127;DHT22;38120;53.176;6.614;2023-07-16T12:41:49;20.60;99.90
52127;DHT22;38120;53.176;6.614;2023-07-16T12:44:15;20.60;99.90
52127;DHT22;38120;53.176;6.614;2023-07-16T12:46:41;20.60;99.90
52127;DHT22;38120;53.176;6.614;2023-07-16T12:49:07;20.40;99.90
52127;DHT22;38120;53.176;6.614;2023-07-16T12:51:32;20.30;99.90
52127;DHT22;38120;53.176;6.614;2023-07-16T12:53:58;20.20;99.90
52127;DHT22;38120;53.176;6.614;2023-07-16T12:56:26;20.70;99.90
52127;DHT22;38120;53.176;6.614;2023-07-16T12:58:52;20.70;99.90
52127;DHT22;38120;53.176;6.614;2023-07-16T13:01:17;20.80;99.90
52127;DHT22;38120;53.176;6.614;2023-07-16T13:03:43;20.80;99.90
52127;DHT22;38120;53.176;6.614;2023-07-16T13:06:09;20.80;99.90
52127;DHT22;38120;53.176;6.614;2023-07-16T13:08:35;20.80;99.90
52127;DHT22;38120;53.176;6.614;2023-07-16T13:11:01;20.70;99.90
52127;DHT22;38120;53.176;6.614;2023-07-16T13:13:27;20.80;99.90
52127;DHT22;38120;53.176;6.614;2023-07-16T13:15:53;20.80;99.90
52127;DHT22;38120;53.176;6.614;2023-07-16T13:18:19;20.70;99.90
52127;DHT22;38120;53.176;6.614;2023-07-16T13:20:45;20.80;99.90
52127;DHT22;38120;53.176;6.614;2023-07-16T13:23:10;20.90;99.90
52127;DHT22;38120;53.176;6.614;2023-07-16T13:25:36;20.90;99.90
52127;DHT22;38120;53.176;6.614;2023-07-16T13:28:05;21.50;99.90
52127;DHT22;38120;53.176;6.614;2023-07-16T13:30:31;22.10;99.90
52127;DHT22;38120;53.176;6.614;2023-07-16T13:32:56;22.20;99.90
52127;DHT22;38120;53.176;6.614;2023-07-16T13:35:23;22.30;99.90
52127;DHT22;38120;53.176;6.614;2023-07-16T13:37:48;21.90;99.90
52127;DHT22;38120;53.176;6.614;2023-07-16T13:40:14;21.80;99.90
52127;DHT22;38120;53.176;6.614;2023-07-16T13:42:40;21.50;99.90
52127;DHT22;38120;53.176;6.614;2023-07-16T13:45:06;21.40;99.90
52127;DHT22;38120;53.176;6.614;2023-07-16T13:47:32;21.20;99.90
52127;DHT22;38120;53.176;6.614;2023-07-16T13:49:58;21.30;99.90
52127;DHT22;38120;53.176;6.614;2023-07-16T13:52:23;21.50;99.90
52127;DHT22;38120;53.176;6.614;2023-07-16T13:54:49;21.40;99.90
52127;DHT22;38120;53.176;6.614;2023-07-16T13:57:17;21.30;99.90
52127;DHT22;38120;53.176;6.614;2023-07-16T13:59:43;21.20;99.90
52127;DHT22;38120;53.176;6.614;2023-07-16T14:02:09;21.60;99.90
52127;DHT22;38120;53.176;6.614;2023-07-16T14:04:34;21.70;99.90
52127;DHT22;38120;53.176;6.614;2023-07-16T14:07:00;21.50;99.90
52127;DHT22;38120;53.176;6.614;2023-07-16T14:09:26;21.30;99.90
52127;DHT22;38120;53.176;6.614;2023-07-16T14:11:52;21.20;99.90
52127;DHT22;38120;53.176;6.614;2023-07-16T14:14:18;21.10;99.90
52127;DHT22;38120;53.176;6.614;2023-07-16T14:16:44;21.30;99.90
52127;DHT22;38120;53.176;6.614;2023-07-16T14:19:18;21.20;99.90
52127;DHT22;38120;53.176;6.614;2023-07-16T14:21:44;21.20;91.20
52127;DHT22;38120;53.176;6.614;2023-07-16T14:24:10;21.50;94.00
52127;DHT22;38120;53.176;6.614;2023-07-16T14:26:35;21.50;1.00
52127;DHT22;38120;53.176;6.614;2023-07-16T14:29:01;22.00;1.00
52127;DHT22;38120;53.176;6.614;2023-07-16T14:31:27;21.60;99.90
52127;DHT22;38120;53.176;6.614;2023-07-16T14:33:53;21.50;82.70
52127;DHT22;38120;53.176;6.614;2023-07-16T14:36:18;21.90;1.00
52127;DHT22;38120;53.176;6.614;2023-07-16T14:38:44;22.10;1.00
52127;DHT22;38120;53.176;6.614;2023-07-16T14:41:10;22.30;1.00
52127;DHT22;38120;53.176;6.614;2023-07-16T14:43:36;22.10;1.00
52127;DHT22;38120;53.176;6.614;2023-07-16T14:46:02;22.00;1.00
52127;DHT22;38120;53.176;6.614;2023-07-16T14:48:28;22.20;1.00
52127;DHT22;38120;53.176;6.614;2023-07-16T14:50:54;22.70;99.90
52127;DHT22;38120;53.176;6.614;2023-07-16T14:53:20;22.70;5.30
52127;DHT22;38120;53.176;6.614;2023-07-16T14:55:50;22.60;99.90
52127;DHT22;38120;53.176;6.614;2023-07-16T14:58:20;22.50;99.90
52127;DHT22;38120;53.176;6.614;2023-07-16T15:00:47;22.40;99.90
52127;DHT22;38120;53.176;6.614;2023-07-16T15:03:13;22.50;30.00
52127;DHT22;38120;53.176;6.614;2023-07-16T15:05:38;22.60;1.00
52127;DHT22;38120;53.176;6.614;2023-07-16T15:08:04;22.60;99.90
52127;DHT22;38120;53.176;6.614;2023-07-16T15:10:31;23.00;1.00
52127;DHT22;38120;53.176;6.614;2023-07-16T15:12:57;22.70;99.90
52127;DHT22;38120;53.176;6.614;2023-07-16T15:15:23;22.70;99.90
52127;DHT22;38120;53.176;6.614;2023-07-16T15:17:48;22.50;99.90
52127;DHT22;38120;53.176;6.614;2023-07-16T15:20:14;22.30;99.90
52127;DHT22;38120;53.176;6.614;2023-07-16T15:22:40;22.30;99.90
52127;DHT22;38120;53.176;6.614;2023-07-16T15:25:07;22.20;1.00
52127;DHT22;38120;53.176;6.614;2023-07-16T15:27:32;22.20;99.90
52127;DHT22;38120;53.176;6.614;2023-07-16T15:29:58;22.20;99.90
52127;DHT22;38120;53.176;6.614;2023-07-16T15:32:24;22.10;99.90
52127;DHT22;38120;53.176;6.614;2023-07-16T15:34:50;21.90;99.90
52127;DHT22;38120;53.176;6.614;2023-07-16T15:37:16;21.80;99.90
52127;DHT22;38120;53.176;6.614;2023-07-16T15:39:41;21.70;1.00
52127;DHT22;38120;53.176;6.614;2023-07-16T15:42:07;21.80;1.00
52127;DHT22;38120;53.176;6.614;2023-07-16T15:44:33;21.50;1.00